Flight Track Log - Related Links

Times and Time Zones

All times are in EST time to prevent confusion due to time zone crossing. See the FSR15 flight status page for this flight to view local times or setup timezone preferences in your user account.

Time Position Orientation Groundspeed Altitude Reporting Facility
EST Latitude Longitude Course Direction KTS MPH feet Rate Location/Type
Fri 07:48:26 PM 25.3347 -80.2614 351° North 158 182 700  Level Miami Center
Fri 07:49:39 PM 25.4117 -80.2750 360° North 270 311 2,000 627 Climbing Miami Center
Fri 07:50:40 PM 25.4847 -80.2747 360° North 262 302 2,100 1,805 Climbing Miami Center
Fri 07:51:42 PM 25.5569 -80.3114 335° Northwest 273 314 5,700 3,407 Climbing Miami Center
Fri 07:52:38 PM 25.6125 -80.3522 326° Northwest 294 338 8,800 3,466 Climbing Miami Center
Fri 07:53:38 PM 25.6742 -80.3978 326° Northwest 294 338 12,400 3,300 Climbing Miami Center
Fri 07:54:38 PM 25.7519 -80.4578 325° Northwest 318 366 15,400 2,750 Climbing Miami Center
Fri 07:55:38 PM 25.8319 -80.5200 325° Northwest 343 395 17,900 2,400 Climbing Miami Center
Fri 07:56:38 PM 25.9139 -80.5825 326° Northwest 349 402 20,200 2,150 Climbing Miami Center
Fri 07:57:38 PM 25.9978 -80.6478 325° Northwest 359 413 22,200 2,000 Climbing Miami Center
Fri 07:58:38 PM 26.0919 -80.7200 325° Northwest 382 440 24,200 2,150 Climbing Miami Center
Fri 07:59:38 PM 26.1861 -80.7925 325° Northwest 399 459 26,500 2,600 Climbing Miami Center
Fri 08:00:38 PM 26.2822 -80.8697 324° Northwest 399 459 29,400 2,450 Climbing Miami Center
Fri 08:01:38 PM 26.3722 -80.9400 325° Northwest 399 459 31,400 1,950 Climbing Miami Center
Fri 08:02:38 PM 26.4644 -81.0036 328° Northwest 393 452 33,300 1,700 Climbing Miami Center
Fri 08:03:38 PM 26.5608 -81.0650 330° Northwest 393 452 34,800 1,400 Climbing Miami Center
Fri 08:04:38 PM 26.6528 -81.1286 328° Northwest 393 452 36,100 1,150 Climbing Miami Center
Fri 08:05:38 PM 26.7514 -81.1881 332° Northwest 393 452 37,100 1,000 Climbing Miami Center
Fri 08:06:38 PM 26.8394 -81.2450 330° Northwest 393 452 38,100 950 Climbing Miami Center
Fri 08:07:38 PM 26.9378 -81.3067 331° Northwest 393 452 39,000 950 Climbing Miami Center
Fri 08:08:38 PM 27.0461 -81.3761 330° Northwest 398 458 40,000 500 Climbing Miami Center
Fri 08:09:38 PM 27.1444 -81.4383 331° Northwest 398 458 40,000  Level Miami Center
Fri 08:10:38 PM 27.2447 -81.5031 330° Northwest 409 471 40,000  Level Miami Center
Fri 08:11:38 PM 27.3367 -81.5628 330° Northwest 416 479 40,000  Level Miami Center
Fri 08:12:38 PM 27.4369 -81.6278 330° Northwest 411 473 40,000  Level Miami Center
Fri 08:13:38 PM 27.5492 -81.7003 330° Northwest 417 480 40,000  Level Miami Center
Fri 08:14:38 PM 27.6492 -81.7656 330° Northwest 412 474 40,000  Level Miami Center
Fri 08:15:38 PM 27.7494 -81.8283 331° Northwest 412 474 40,000  Level Miami Center
Fri 08:16:38 PM 27.8472 -81.8939 329° Northwest 412 474 40,000  Level Miami Center
Fri 08:18:17 PM 28.0133 -81.9969 331° Northwest 396 456 40,000  Level Jacksonville Center
Fri 08:19:17 PM 28.1097 -82.0597 330° Northwest 402 463 40,000  Level Jacksonville Center
Fri 08:20:17 PM 28.2039 -82.1225 330° Northwest 402 463 40,000  Level Jacksonville Center
Fri 08:21:17 PM 28.2983 -82.1853 330° Northwest 402 463 40,000  Level Jacksonville Center
Fri 08:22:17 PM 28.4008 -82.2319 338° Northwest 396 456 40,000  Level Jacksonville Center
Fri 08:23:17 PM 28.5053 -82.2783 339° North 396 456 40,000  Level Jacksonville Center
Fri 08:24:17 PM 28.6097 -82.3250 339° North 396 456 40,000  Level Jacksonville Center
Fri 08:25:17 PM 28.7122 -82.3694 339° North 393 452 40,000  Level Jacksonville Center
Fri 08:26:17 PM 28.8169 -82.4186 338° Northwest 393 452 40,000  Level Jacksonville Center
Fri 08:27:17 PM 28.9236 -82.4656 339° North 399 459 40,000  Level Jacksonville Center
Fri 08:28:17 PM 29.0281 -82.5150 338° Northwest 404 465 40,000  Level Jacksonville Center
Fri 08:29:17 PM 29.1344 -82.5622 339° North 409 471 40,000  Level Jacksonville Center
Fri 08:30:17 PM 29.2433 -82.6117 338° Northwest 415 478 40,000  Level Jacksonville Center
Fri 08:31:17 PM 29.3519 -82.6614 338° Northwest 415 478 40,000  Level Jacksonville Center
Fri 08:32:17 PM 29.4583 -82.7089 339° North 415 478 40,000  Level Jacksonville Center
Fri 08:33:17 PM 29.5567 -82.7611 335° Northwest 421 484 40,000  Level Jacksonville Center
Fri 08:34:17 PM 29.6631 -82.8089 339° North 421 484 40,000  Level Jacksonville Center
Fri 08:35:17 PM 29.7675 -82.8567 338° Northwest 415 478 40,000  Level Jacksonville Center
Fri 08:36:17 PM 29.8739 -82.9094 337° Northwest 415 478 40,000  Level Jacksonville Center
Fri 08:37:17 PM 29.9825 -82.9572 339° North 415 478 40,000  Level Jacksonville Center
Fri 08:38:17 PM 30.1014 -83.0078 340° North 415 478 40,000  Level Jacksonville Center
Fri 08:39:17 PM 30.2017 -83.0561 337° Northwest 415 478 40,000  Level Jacksonville Center
Fri 08:40:17 PM 30.3103 -83.1067 338° Northwest 415 478 40,000  Level Jacksonville Center
Fri 08:41:17 PM 30.4167 -83.1553 338° Northwest 415 478 40,000  Level Jacksonville Center
Fri 08:42:17 PM 30.5250 -83.2061 338° Northwest 415 478 40,000  Level Jacksonville Center
Fri 08:43:17 PM 30.6333 -83.2594 337° Northwest 415 478 40,000  Level Jacksonville Center
Fri 08:44:17 PM 30.7419 -83.3108 338° Northwest 415 478 40,000  Level Jacksonville Center
Fri 08:45:17 PM 30.8564 -83.3669 337° Northwest 415 478 40,000  Level Jacksonville Center
Fri 08:46:17 PM 30.9628 -83.4158 338° Northwest 415 478 40,000  Level Jacksonville Center
Fri 08:47:17 PM 31.0711 -83.4675 338° Northwest 415 478 40,000  Level Jacksonville Center
Fri 08:49:38 PM 31.3200 -83.5867 338° Northwest 416 479 40,000  Level Atlanta Center
Fri 08:50:38 PM 31.4267 -83.6372 338° Northwest 411 473 40,000  Level Atlanta Center
Fri 08:51:38 PM 31.5292 -83.6881 337° Northwest 411 473 40,000  Level Atlanta Center
Fri 08:52:38 PM 31.6253 -83.7317 339° North 411 473 40,000  Level Atlanta Center
Fri 08:53:38 PM 31.7317 -83.7825 338° Northwest 411 473 40,000  Level Atlanta Center
Fri 08:54:38 PM 31.8486 -83.8433 336° Northwest 427 491 40,000  Level Atlanta Center
Fri 08:55:38 PM 31.9489 -83.8919 338° Northwest 415 478 40,000  Level Atlanta Center
Fri 08:56:38 PM 32.0492 -83.9408 338° Northwest 398 458 40,000  Level Atlanta Center
Fri 08:57:38 PM 32.1536 -83.9897 338° Northwest 398 458 40,000  Level Atlanta Center
Fri 08:58:38 PM 32.2539 -84.0414 336° Northwest 398 458 40,000  Level Atlanta Center
Fri 08:59:38 PM 32.3561 -84.0906 338° Northwest 398 458 40,000  Level Atlanta Center
Fri 09:00:38 PM 32.4561 -84.1397 337° Northwest 398 458 40,000  Level Atlanta Center
Fri 09:01:38 PM 32.5606 -84.1917 337° Northwest 398 458 40,000  Level Atlanta Center
Fri 09:02:38 PM 32.6647 -84.2411 338° Northwest 398 458 40,000  Level Atlanta Center
Fri 09:03:38 PM 32.7669 -84.2933 337° Northwest 398 458 40,000  Level Atlanta Center
Fri 09:04:38 PM 32.8672 -84.3506 334° Northwest 398 458 40,000  Level Atlanta Center
Fri 09:05:38 PM 32.9714 -84.3978 339° North 398 458 40,000  Level Atlanta Center
Fri 09:06:38 PM 33.0733 -84.4503 337° Northwest 393 452 40,000  Level Atlanta Center
Fri 09:07:38 PM 33.1775 -84.5006 338° Northwest 398 458 40,000  Level Atlanta Center
Fri 09:08:38 PM 33.2817 -84.5533 337° Northwest 398 458 40,000  Level Atlanta Center
Fri 09:09:38 PM 33.3964 -84.6111 337° Northwest 398 458 40,000  Level Atlanta Center
Fri 09:10:38 PM 33.4983 -84.6642 337° Northwest 398 458 40,000  Level Atlanta Center
Fri 09:11:38 PM 33.5817 -84.7044 338° Northwest 398 458 40,000  Level Atlanta Center
Fri 09:12:38 PM 33.6942 -84.7578 338° Northwest 398 458 40,000 100 Level Atlanta Center
Fri 09:13:38 PM 33.7981 -84.8136 336° Northwest 398 458 40,200 600 Climbing Atlanta Center
Fri 09:14:38 PM 33.8981 -84.8647 337° Northwest 398 458 41,200 850 Climbing Atlanta Center
Fri 09:15:38 PM 34.0000 -84.9158 337° Northwest 398 458 41,900 600 Climbing Atlanta Center
Fri 09:16:38 PM 34.1017 -84.9644 338° Northwest 398 458 42,400 450 Climbing Atlanta Center
Fri 09:17:38 PM 34.2078 -85.0183 337° Northwest 403 464 42,800 300 Climbing Atlanta Center
Fri 09:18:38 PM 34.3222 -85.0775 337° Northwest 403 464 43,000 100 Climbing Atlanta Center
Fri 09:19:38 PM 34.4322 -85.1369 336° Northwest 414 476 43,000  Level Atlanta Center
Fri 09:20:38 PM 34.5361 -85.1911 337° Northwest 414 476 43,000  Level Atlanta Center
Fri 09:21:38 PM 34.6442 -85.2483 336° Northwest 414 476 43,000  Level Atlanta Center
Fri 09:22:38 PM 34.7542 -85.3028 338° Northwest 414 476 43,000  Level Atlanta Center
Fri 09:23:38 PM 34.8600 -85.3603 336° Northwest 414 476 43,000  Level Atlanta Center
Fri 09:24:38 PM 34.9678 -85.4175 336° Northwest 414 476 43,000  Level Atlanta Center
Fri 09:26:53 PM 35.2036 -85.5383 337° Northwest 422 486 43,000  Level Memphis Center
Fri 09:27:55 PM 35.3114 -85.5953 337° Northwest 421 484 43,000  Level Memphis Center
Fri 09:28:56 PM 35.4183 -85.6528 336° Northwest 418 481 43,000  Level Memphis Center
Fri 09:29:57 PM 35.5261 -85.7094 337° Northwest 418 481 43,000  Level Memphis Center
Fri 09:30:58 PM 35.6333 -85.7672 336° Northwest 419 482 43,000  Level Memphis Center
Fri 09:32:00 PM 35.7394 -85.8233 337° Northwest 416 479 43,000  Level Memphis Center
Fri 09:33:01 PM 35.8578 -85.8869 336° Northwest 409 471 43,000  Level Memphis Center
Fri 09:34:02 PM 35.9617 -85.9433 336° Northwest 405 466 43,000  Level Memphis Center
Fri 09:35:03 PM 36.0647 -85.9975 337° Northwest 403 464 43,000  Level Memphis Center
Fri 09:36:04 PM 36.1672 -86.0542 336° Northwest 401 461 43,000  Level Memphis Center
Fri 09:37:05 PM 36.2697 -86.1094 337° Northwest 400 460 43,000  Level Memphis Center
Fri 09:38:07 PM 36.3706 -86.1642 336° Northwest 397 457 43,000  Level Memphis Center
Fri 09:39:08 PM 36.4703 -86.2189 336° Northwest 392 451 43,000  Level Memphis Center
Fri 09:40:09 PM 36.5706 -86.2731 337° Northwest 391 450 43,000  Level Memphis Center
Fri 09:41:10 PM 36.6708 -86.3278 336° Northwest 392 451 43,000  Level Memphis Center
Fri 09:42:11 PM 36.7872 -86.3925 336° Northwest 391 450 43,000  Level Memphis Center
Fri 09:43:12 PM 36.8872 -86.4481 336° Northwest 392 451 43,000  Level Memphis Center
Fri 09:44:13 PM 36.9881 -86.5039 336° Northwest 392 451 43,000  Level Memphis Center
Fri 09:45:14 PM 37.0875 -86.5597 336° Northwest 391 450 43,000  Level Memphis Center
Fri 09:46:15 PM 37.1883 -86.6150 336° Northwest 391 450 43,000  Level Memphis Center
Fri 09:47:17 PM 37.2878 -86.6711 336° Northwest 390 449 43,000  Level Memphis Center
Fri 09:48:18 PM 37.3881 -86.7275 336° Northwest 390 449 43,000  Level Memphis Center
Fri 09:49:19 PM 37.4886 -86.7839 336° Northwest 391 450 43,000  Level Memphis Center
Fri 09:50:20 PM 37.5869 -86.8394 336° Northwest 387 445 43,000  Level Memphis Center
Fri 09:51:21 PM 37.6847 -86.8950 336° Northwest 383 441 43,000  Level Memphis Center
Fri 09:52:40 PM 37.8142 -86.9658 337° Northwest 383 441 43,000  Level Indianapolis Center
Fri 09:53:41 PM 37.9122 -87.0231 335° Northwest 385 443 43,000 -439 Level Indianapolis Center
Fri 09:54:43 PM 38.0111 -87.0800 336° Northwest 387 445 42,100 -1,220 Descending Indianapolis Center
Fri 09:55:44 PM 38.1089 -87.1364 336° Northwest 382 440 40,500 -1,721 Descending Indianapolis Center
Fri 09:56:45 PM 38.2097 -87.1942 336° Northwest 389 448 38,600 -1,918 Descending Indianapolis Center
Fri 09:57:46 PM 38.3069 -87.2494 336° Northwest 374 430 36,600 -1,869 Descending Indianapolis Center
Fri 09:58:47 PM 38.4008 -87.3044 335° Northwest 364 419 34,800 -1,756 Descending Indianapolis Center
Fri 09:59:49 PM 38.4942 -87.3592 335° Northwest 365 420 33,000 -1,805 Descending Indianapolis Center
Fri 10:00:50 PM 38.5906 -87.4136 336° Northwest 373 429 31,100 -1,918 Descending Indianapolis Center
Fri 10:01:51 PM 38.6919 -87.4736 335° Northwest 394 453 29,100 -2,016 Descending Indianapolis Center
Fri 10:02:52 PM 38.7950 -87.5339 335° Northwest 405 466 27,000 -2,016 Descending Indianapolis Center
Fri 10:03:53 PM 38.8997 -87.5950 336° Northwest 409 471 25,000 -1,475 Descending Indianapolis Center
Fri 10:04:54 PM 39.0036 -87.6569 335° Northwest 409 471 24,000 -1,328 Descending Indianapolis Center
Fri 10:05:55 PM 39.1056 -87.7175 335° Northwest 403 464 22,300 -2,164 Descending Indianapolis Center
Fri 10:06:56 PM 39.2094 -87.7781 336° Northwest 406 467 19,600 -2,557 Descending Indianapolis Center
Fri 10:07:57 PM 39.3097 -87.8356 336° Northwest 399 459 17,100 -2,459 Descending Indianapolis Center
Fri 10:08:58 PM 39.4086 -87.8947 335° Northwest 394 453 14,600 -2,579 Descending Indianapolis Center
Fri 10:09:58 PM 39.5239 -87.9633 335° Northwest 384 442 11,900 -2,033 Descending Indianapolis Center
Fri 10:10:59 PM 39.6158 -88.0203 334° Northwest 373 429 10,500 -1,131 Descending Indianapolis Center
Fri 10:12:00 PM 39.6925 -88.0656 336° Northwest 324 373 9,600 -1,574 Descending Indianapolis Center
Fri 10:13:01 PM 39.7614 -88.1119 333° Northwest 295 339 7,300 -2,262 Descending Indianapolis Center
Fri 10:16:00 PM 39.9391 -88.2112 339° North  Level FlightAware Approximate
Fri 10:23:00 PM 40.0333 -88.2667 333° Northwest  Level FlightAware Approximate
Fri 10:24:00 PM 40.0388 -88.2778 333° Northwest  Level Estimated
Fri 10:25:00 PM 40.0388 -88.2778 333° Northwest  Level Estimated
Fri 10:26:00 PM 40.0388 -88.2778 333° Northwest  Level Estimated
Fri 10:27:00 PM 40.0388 -88.2778 333° Northwest  Level Estimated

Login

Don't have an account? Register now (free) for customized features, flight alerts, and more!